Time;durP1;ratioP1;P1;durP2;ratioP2;P2;SDS_P1;SDS_P2;PMS_P1;PMS_P2;Temp;Humidity;BMP_temperature;BMP_pressure;BME280_temperature;BME280_humidity;BME280_pressure;Samples;Min_cycle;Max_cycle;Signal;HPM_P1;HPM_P2
2023/06/13 08:57:27;;;;;;;9.07;4.50;;;;;;;23.26;39.68;101148.38;5020571;27;20424;-70
2023/06/13 08:59:53;;;;;;;10.93;4.82;;;;;;;23.31;39.69;101148.25;5018717;28;20114;-70
2023/06/13 09:02:26;;;;;;;8.20;4.50;;;;;;;23.41;39.16;101144.50;5025919;28;20455;-71
2023/06/13 09:04:52;;;;;;;10.40;5.30;;;;;;;23.44;38.34;101143.91;5017009;28;20060;-71
2023/06/13 09:07:18;;;;;;;9.45;5.05;;;;;;;23.54;38.25;101141.75;5028591;28;20026;-71
2023/06/13 09:09:45;;;;;;;12.50;4.82;;;;;;;23.70;38.47;101141.44;5025701;28;20021;-71
2023/06/13 09:12:12;;;;;;;10.50;4.75;;;;;;;23.69;38.51;101137.88;5029819;28;20437;-72
2023/06/13 09:14:39;;;;;;;10.95;4.70;;;;;;;23.78;38.34;101140.75;5028426;28;20469;-73
2023/06/13 09:17:05;;;;;;;7.20;4.82;;;;;;;23.79;38.87;101145.13;5028417;28;20048;-71
2023/06/13 09:19:33;;;;;;;11.23;5.10;;;;;;;23.93;39.16;101149.88;5028095;28;20520;-72
2023/06/13 09:21:58;;;;;;;9.80;4.90;;;;;;;23.87;37.55;101147.22;5028048;28;20034;-75
2023/06/13 09:24:24;;;;;;;11.70;4.95;;;;;;;23.96;39.00;101143.72;5026655;28;20483;-70
2023/06/13 09:26:50;;;;;;;9.93;4.50;;;;;;;24.04;38.26;101146.59;5028327;28;20364;-71
2023/06/13 09:29:30;;;;;;;11.23;5.30;;;;;;;24.19;37.26;101141.88;5018117;28;20018;-71
2023/06/13 09:32:00;;;;;;;9.65;4.53;;;;;;;24.20;37.11;101138.78;5009611;28;20112;-72
2023/06/13 09:34:29;;;;;;;8.07;4.93;;;;;;;24.37;37.82;101140.09;5009340;28;20026;-72
2023/06/13 09:36:59;;;;;;;13.15;4.68;;;;;;;24.36;37.45;101143.97;5015288;28;20058;-72
2023/06/13 09:39:31;;;;;;;9.60;4.80;;;;;;;24.48;37.71;101143.41;5020651;28;20449;-72
2023/06/13 09:42:01;;;;;;;8.43;4.38;;;;;;;24.44;36.85;101136.88;5024701;28;20077;-73
2023/06/13 09:44:29;;;;;;;9.68;4.63;;;;;;;24.53;37.27;101133.06;5009242;28;20034;-71
2023/06/13 09:46:55;;;;;;;7.28;3.90;;;;;;;24.67;37.08;101134.97;5007989;28;20030;-68
2023/06/13 09:49:23;;;;;;;7.57;4.22;;;;;;;24.69;36.13;101138.25;5009604;28;20335;-71
2023/06/13 09:51:51;;;;;;;7.30;4.13;;;;;;;24.71;35.09;101139.56;5007935;28;20374;-67
2023/06/13 09:54:18;;;;;;;7.88;4.00;;;;;;;24.71;35.30;101131.25;5020181;28;20076;-68
2023/06/13 09:56:44;;;;;;;8.70;4.40;;;;;;;24.88;34.94;101130.59;5025891;28;20496;-67
2023/06/13 09:59:16;;;;;;;7.28;4.30;;;;;;;24.91;35.43;101121.66;5029005;28;20044;-67
2023/06/13 10:01:42;;;;;;;6.57;4.13;;;;;;;25.01;34.08;101131.63;5029631;28;20052;-67
2023/06/13 10:04:08;;;;;;;8.98;4.18;;;;;;;25.08;34.52;101134.78;5021393;28;20021;-66
2023/06/13 10:06:33;;;;;;;11.50;4.60;;;;;;;25.08;33.90;101128.44;5011975;28;20030;-70
2023/06/13 10:08:58;;;;;;;6.85;4.28;;;;;;;25.13;33.75;101115.25;5004882;28;20041;-67
2023/06/13 10:11:31;;;;;;;9.95;4.53;;;;;;;25.22;34.04;101129.13;4998414;28;20357;-67
2023/06/13 10:14:11;;;;;;;11.10;4.05;;;;;;;25.23;33.92;101130.78;5000122;28;20041;-67
2023/06/13 10:16:51;;;;;;;6.95;4.00;;;;;;;25.27;34.14;101126.25;4995669;28;20109;-67
2023/06/13 10:19:20;;;;;;;7.03;4.10;;;;;;;25.37;33.36;101127.13;4995706;28;20125;-67
2023/06/13 10:21:46;;;;;;;8.80;3.75;;;;;;;25.51;33.73;101130.59;4995514;28;20061;-67
2023/06/13 10:24:13;;;;;;;9.93;3.90;;;;;;;25.68;32.33;101117.94;4995754;28;20527;-66
2023/06/13 10:26:44;;;;;;;7.90;3.90;;;;;;;25.76;32.55;101122.72;4995291;28;20026;-67
2023/06/13 10:29:40;;;;;;;9.18;3.75;;;;;;;25.84;33.04;101121.91;4995867;28;20030;-66
2023/06/13 10:32:06;;;;;;;9.45;4.20;;;;;;;25.91;32.36;101127.81;4996501;28;20524;-67
2023/06/13 10:34:37;;;;;;;7.82;3.83;;;;;;;26.05;32.96;101126.91;4998482;28;20027;-67
2023/06/13 10:37:03;;;;;;;;;;;;;;;26.08;33.48;101129.03;5013593;28;20076;-67
2023/06/13 10:39:49;;;;;;;5.30;3.70;;;;;;;26.29;32.87;101127.25;5012022;28;19916;-67
2023/06/13 10:42:35;;;;;;;8.38;4.03;;;;;;;26.25;32.86;101123.47;5014769;28;20042;-67
2023/06/13 10:45:07;;;;;;;9.13;4.05;;;;;;;26.28;31.90;101131.16;5013755;28;20021;-66
2023/06/13 10:47:32;;;;;;;8.38;3.70;;;;;;;26.41;31.42;101123.00;5014470;28;20022;-68
2023/06/13 10:49:59;;;;;;;8.10;4.40;;;;;;;26.47;31.43;101128.06;5007140;28;20025;-65
2023/06/13 10:52:24;;;;;;;8.13;3.83;;;;;;;26.54;31.01;101119.22;5013580;28;20026;-66
2023/06/13 10:54:54;;;;;;;5.75;3.63;;;;;;;26.48;30.78;101124.16;5013292;28;20428;-66
2023/06/13 10:57:20;;;;;;;9.07;4.40;;;;;;;26.58;29.94;101125.78;5012961;28;20061;-67
2023/06/13 10:59:48;;;;;;;6.90;3.50;;;;;;;26.64;29.94;101127.22;5003110;28;20759;-69
2023/06/13 11:02:15;;;;;;;7.78;3.83;;;;;;;26.69;29.42;101124.34;5001163;28;20128;-69
2023/06/13 11:04:48;;;;;;;7.80;3.70;;;;;;;26.84;30.17;101119.41;4994717;28;20042;-65
2023/06/13 11:07:23;;;;;;;7.07;3.70;;;;;;;26.88;29.17;101115.63;5001412;28;20036;-68
2023/06/13 11:10:04;;;;;;;8.48;4.10;;;;;;;26.98;29.81;101106.16;4993443;28;20026;-66
2023/06/13 11:12:29;;;;;;;;;;;;;;;27.03;30.19;101110.72;4994046;28;20077;-70
2023/06/13 11:15:00;;;;;;;8.07;3.60;;;;;;;27.15;29.00;101110.03;5001005;28;19918;-65
2023/06/13 11:17:26;;;;;;;7.23;3.60;;;;;;;27.15;28.37;101112.81;4999680;28;20060;-64
2023/06/13 11:19:53;;;;;;;4.63;3.60;;;;;;;27.26;28.66;101110.47;5007201;28;20065;-66
2023/06/13 11:22:21;;;;;;;11.40;3.90;;;;;;;27.29;29.01;101109.81;5015463;28;20028;-65
2023/06/13 11:24:47;;;;;;;8.32;3.90;;;;;;;27.37;27.52;101101.47;5001486;28;20101;-66
2023/06/13 11:27:15;;;;;;;5.05;3.40;;;;;;;27.42;27.34;101111.59;4993575;28;20026;-66
2023/06/13 11:30:16;;;;;;;6.28;3.53;;;;;;;27.45;28.31;101104.53;4993666;28;20482;-66
2023/06/13 11:32:51;;;;;;;8.98;3.92;;;;;;;27.53;28.48;101101.72;5008017;28;20041;-66
2023/06/13 11:35:20;;;;;;;5.45;3.78;;;;;;;27.52;27.67;101100.13;4992637;28;20049;-67
2023/06/13 11:37:50;;;;;;;6.75;3.65;;;;;;;27.53;27.77;101100.91;4998008;28;20458;-67
2023/06/13 11:40:32;;;;;;;9.88;4.10;;;;;;;27.68;27.89;101108.69;5006306;28;20036;-66
2023/06/13 11:42:58;;;;;;;6.68;3.60;;;;;;;27.72;27.59;101101.31;5013209;28;20028;-67
2023/06/13 11:45:23;;;;;;;5.82;3.70;;;;;;;27.81;27.44;101100.41;5013535;28;20026;-66
2023/06/13 11:47:58;;;;;;;9.43;3.75;;;;;;;27.85;27.78;101106.94;5010667;28;20084;-66
2023/06/13 11:50:26;;;;;;;5.63;3.80;;;;;;;27.78;26.27;101096.38;4992902;28;20405;-66
2023/06/13 11:53:08;;;;;;;4.32;3.30;;;;;;;27.77;27.11;101103.88;4993637;28;20343;-66
2023/06/13 11:55:34;;;;;;;7.53;3.47;;;;;;;27.88;26.61;101098.72;4993796;28;20058;-69
2023/06/13 11:57:59;;;;;;;5.80;3.88;;;;;;;28.04;27.22;101107.34;4994264;28;20618;-66
2023/06/13 12:00:28;;;;;;;6.43;3.70;;;;;;;28.01;26.12;101096.91;4992564;28;20034;-66
2023/06/13 12:02:57;;;;;;;7.72;3.70;;;;;;;28.17;26.36;101099.06;5010819;28;20057;-67
2023/06/13 12:05:23;;;;;;;6.45;3.58;;;;;;;28.15;25.86;101102.19;5013555;28;20034;-67
2023/06/13 12:07:50;;;;;;;6.20;3.92;;;;;;;28.34;26.91;101085.03;5012208;28;20033;-67
2023/06/13 12:10:17;;;;;;;7.25;3.88;;;;;;;28.38;27.41;101085.16;5010478;28;20167;-66
2023/06/13 12:12:42;;;;;;;7.03;3.90;;;;;;;28.39;26.73;101089.56;5006804;28;20101;-67
2023/06/13 12:15:13;;;;;;;6.68;3.80;;;;;;;28.39;26.88;101082.03;5012021;28;20053;-66
2023/06/13 12:17:55;;;;;;;9.15;3.80;;;;;;;28.47;26.66;101083.09;5013105;28;20049;-67
2023/06/13 12:20:24;;;;;;;6.85;3.80;;;;;;;28.69;27.74;101100.63;5013119;28;20022;-68
2023/06/13 12:22:57;;;;;;;7.95;4.00;;;;;;;28.54;26.40;101104.81;5000210;28;20030;-67
2023/06/13 12:25:26;;;;;;;10.45;3.75;;;;;;;28.70;26.77;101103.06;4993541;28;20446;-67
2023/06/13 12:27:52;;;;;;;7.60;4.40;;;;;;;28.68;26.83;101094.22;4993341;28;20076;-68
2023/06/13 12:30:19;;;;;;;10.23;3.90;;;;;;;28.76;25.29;101085.00;4992990;28;20458;-69
2023/06/13 12:32:48;;;;;;;21.30;4.22;;;;;;;28.75;25.76;101088.91;5005416;28;20057;-66
2023/06/13 12:35:19;;;;;;;10.13;4.00;;;;;;;28.83;25.69;101089.19;5012990;28;20022;-73
2023/06/13 12:37:48;;;;;;;6.53;4.22;;;;;;;28.86;25.61;101088.50;5013036;28;20029;-67
2023/06/13 12:40:13;;;;;;;6.63;3.53;;;;;;;28.91;25.55;101096.63;5013038;28;20033;-67
2023/06/13 12:42:42;;;;;;;4.68;3.30;;;;;;;28.97;26.14;101079.34;5011769;28;20370;-67
2023/06/13 12:45:10;;;;;;;8.98;3.90;;;;;;;29.05;26.26;101077.63;5007614;28;20033;-67
2023/06/13 12:47:35;;;;;;;5.78;3.70;;;;;;;29.15;25.46;101074.38;4994511;28;20053;-67
2023/06/13 12:50:10;;;;;;;6.32;3.75;;;;;;;28.91;25.51;101069.59;4992863;28;20374;-69
2023/06/13 12:52:36;;;;;;;8.77;4.07;;;;;;;28.93;25.13;101067.25;4993260;28;20101;-68
2023/06/13 12:55:02;;;;;;;10.27;3.42;;;;;;;28.95;24.91;101072.50;4997532;28;20153;-68
2023/06/13 12:57:27;;;;;;;7.78;3.50;;;;;;;29.12;26.50;101072.31;4992639;28;20437;-67
2023/06/13 12:59:53;;;;;;;8.10;3.72;;;;;;;29.21;24.86;101072.19;4998624;28;20129;-67
2023/06/13 13:02:22;;;;;;;5.70;3.72;;;;;;;29.27;24.20;101072.78;5001095;28;20056;-67
2023/06/13 13:04:57;;;;;;;7.68;3.58;;;;;;;29.31;23.97;101068.16;5005724;28;20026;-69
2023/06/13 13:07:23;;;;;;;4.35;3.22;;;;;;;29.41;23.48;101059.34;4993174;28;20369;-67
2023/06/13 13:09:48;;;;;;;5.07;3.53;;;;;;;29.45;23.13;101060.25;4991615;28;20026;-67
2023/06/13 13:12:15;;;;;;;6.53;3.40;;;;;;;29.45;22.80;101065.81;5010621;28;20029;-68
2023/06/13 13:14:40;;;;;;;10.57;3.88;;;;;;;29.44;22.68;101066.16;5004110;28;20118;-67
2023/06/13 13:17:06;;;;;;;11.20;3.67;;;;;;;29.52;23.69;101068.84;4992609;28;20113;-67
2023/06/13 13:19:31;;;;;;;4.32;3.40;;;;;;;29.57;23.75;101067.00;4992507;28;20038;-68
2023/06/13 13:21:59;;;;;;;6.75;3.67;;;;;;;29.61;23.25;101067.91;4992475;28;20027;-66
2023/06/13 13:24:25;;;;;;;5.35;3.63;;;;;;;29.63;24.16;101057.22;4995497;28;20117;-66
2023/06/13 13:26:52;;;;;;;4.30;3.50;;;;;;;29.77;24.27;101057.66;5012244;28;20026;-67
2023/06/13 13:29:18;;;;;;;6.22;3.08;;;;;;;29.84;24.40;101059.88;5012246;28;20026;-66
2023/06/13 13:31:44;;;;;;;4.20;3.25;;;;;;;29.78;23.18;101053.69;5010108;28;20030;-69
2023/06/13 13:34:11;;;;;;;6.03;3.88;;;;;;;29.93;24.92;101051.38;5010254;28;20041;-67
2023/06/13 13:36:37;;;;;;;6.63;3.40;;;;;;;29.96;23.41;101050.69;5012384;28;20052;-67
2023/06/13 13:39:03;;;;;;;6.32;3.30;;;;;;;29.99;23.78;101055.56;5012285;28;20022;-68
2023/06/13 13:41:32;;;;;;;4.30;3.40;;;;;;;30.07;23.83;101049.00;5011166;28;20030;-67
2023/06/13 13:44:01;;;;;;;7.85;3.70;;;;;;;30.15;23.19;101050.84;5015452;28;20037;-66
2023/06/13 13:46:27;;;;;;;5.20;3.47;;;;;;;30.18;22.93;101052.09;4998110;28;20050;-67
2023/06/13 13:48:53;;;;;;;7.72;3.53;;;;;;;30.20;22.48;101050.59;5014431;28;20064;-66
2023/06/13 13:51:18;;;;;;;8.63;3.22;;;;;;;30.19;22.86;101046.16;5015981;28;20034;-67
2023/06/13 13:53:44;;;;;;;5.65;3.15;;;;;;;30.19;22.45;101048.97;5015528;28;20025;-66
2023/06/13 13:56:10;;;;;;;6.95;3.42;;;;;;;30.08;23.07;101047.06;4997630;28;20043;-66
2023/06/13 13:58:35;;;;;;;5.55;3.40;;;;;;;30.17;24.08;101048.50;4995962;28;20149;-66
2023/06/13 14:01:01;;;;;;;12.77;3.72;;;;;;;30.34;22.58;101044.59;4996680;28;20096;-68
2023/06/13 14:03:26;;;;;;;5.30;3.40;;;;;;;30.42;22.21;101040.06;5006568;28;20119;-66
2023/06/13 14:05:52;;;;;;;8.88;3.75;;;;;;;30.54;22.70;101037.22;5015203;28;20244;-67
2023/06/13 14:08:17;;;;;;;5.85;3.38;;;;;;;30.62;23.11;101037.41;5015413;28;20072;-67
2023/06/13 14:10:43;;;;;;;6.57;3.28;;;;;;;30.60;22.60;101036.97;5005172;28;20030;-68
2023/06/13 14:13:08;;;;;;;7.75;3.38;;;;;;;30.57;22.77;101039.31;4996971;28;20022;-67
2023/06/13 14:15:33;;;;;;;4.45;3.42;;;;;;;30.35;22.48;101034.28;4995352;28;20030;-68
2023/06/13 14:17:59;;;;;;;6.18;3.50;;;;;;;30.30;22.72;101018.59;4995850;28;20030;-68
2023/06/13 14:20:24;;;;;;;3.60;3.30;;;;;;;30.44;22.51;101026.56;5009108;28;20354;-66
2023/06/13 14:22:49;;;;;;;5.18;3.20;;;;;;;30.68;23.47;101022.00;5004450;28;20030;-68
2023/06/13 14:25:15;;;;;;;4.25;3.50;;;;;;;30.71;23.29;101027.69;4994573;28;20513;-69
2023/06/13 14:27:40;;;;;;;5.87;3.47;;;;;;;30.99;24.11;101024.03;4995535;28;20026;-68
2023/06/13 14:30:06;;;;;;;11.27;3.40;;;;;;;31.00;22.55;101022.88;4997198;28;20359;-68
2023/06/13 14:32:31;;;;;;;8.68;3.40;;;;;;;31.04;22.18;101021.00;4995333;28;20283;-67
2023/06/13 14:34:57;;;;;;;3.95;3.22;;;;;;;30.95;21.90;101027.88;5010039;28;20385;-69
2023/06/13 14:37:22;;;;;;;8.13;3.50;;;;;;;30.91;22.15;101011.84;5008127;28;20038;-69
2023/06/13 14:39:48;;;;;;;5.65;3.53;;;;;;;30.79;21.62;101014.72;5005112;28;20478;-67
2023/06/13 14:42:15;;;;;;;5.53;3.45;;;;;;;30.84;21.91;101022.81;4996247;28;20030;-68
2023/06/13 14:44:45;;;;;;;5.88;3.22;;;;;;;30.97;21.71;101025.56;4995227;28;20032;-72
2023/06/13 14:47:12;;;;;;;7.03;3.42;;;;;;;30.95;21.87;101013.91;4995122;28;20492;-67
2023/06/13 14:49:38;;;;;;;7.00;3.30;;;;;;;30.95;22.27;101014.75;5002031;28;20034;-69
2023/06/13 14:52:04;;;;;;;5.88;3.42;;;;;;;31.00;22.12;101022.88;5014442;28;20380;-70
2023/06/13 14:54:29;;;;;;;6.72;3.30;;;;;;;31.17;21.60;101015.28;5013404;28;20512;-67
2023/06/13 14:56:55;;;;;;;7.63;3.75;;;;;;;31.14;21.07;101008.44;5012900;28;20058;-68
2023/06/13 14:59:20;;;;;;;6.63;3.65;;;;;;;30.99;21.56;101017.66;5007044;28;20030;-68
2023/06/13 15:01:46;;;;;;;5.72;3.40;;;;;;;30.93;21.23;101017.06;5009751;28;20034;-69
2023/06/13 15:04:11;;;;;;;4.47;3.50;;;;;;;31.07;21.47;101016.63;5016334;28;20049;-66
2023/06/13 15:06:37;;;;;;;9.43;3.85;;;;;;;31.19;22.26;100997.00;5020917;28;20448;-68
2023/06/13 15:09:03;;;;;;;11.23;3.67;;;;;;;31.08;21.56;101005.09;5019372;28;20030;-67
2023/06/13 15:11:29;;;;;;;5.95;3.25;;;;;;;31.28;22.06;101006.00;5003606;28;20027;-68
2023/06/13 15:13:54;;;;;;;7.88;3.40;;;;;;;31.34;22.03;101006.50;4998773;28;20381;-67
2023/06/13 15:16:20;;;;;;;4.85;3.17;;;;;;;31.16;21.63;100999.69;4995150;28;20038;-69
2023/06/13 15:18:45;;;;;;;11.18;3.42;;;;;;;31.43;21.87;100997.91;5007972;28;20376;-69
2023/06/13 15:21:11;;;;;;;6.90;3.33;;;;;;;31.24;21.58;100995.91;5005184;28;20199;-70
2023/06/13 15:23:36;;;;;;;6.35;3.17;;;;;;;31.32;21.25;100994.09;4993390;28;20030;-71
2023/06/13 15:26:02;;;;;;;3.75;3.03;;;;;;;31.55;21.77;100988.63;4994451;28;20029;-71
2023/06/13 15:28:28;;;;;;;6.60;3.38;;;;;;;31.39;21.26;100997.06;5001816;28;20025;-72
2023/06/13 15:30:53;;;;;;;8.02;3.60;;;;;;;31.38;21.36;100996.22;5007838;28;20022;-70
2023/06/13 15:33:22;;;;;;;7.25;3.63;;;;;;;31.42;21.53;100997.13;5001022;28;20030;-72
2023/06/13 15:35:49;;;;;;;5.47;3.35;;;;;;;31.46;21.41;100997.19;4999246;28;20030;-69
2023/06/13 15:38:14;;;;;;;9.35;3.50;;;;;;;31.39;21.49;100994.25;4994167;28;20085;-71
2023/06/13 15:40:40;;;;;;;5.53;3.22;;;;;;;31.60;21.69;100989.16;4998290;28;20449;-70
2023/06/13 15:43:05;;;;;;;8.43;3.10;;;;;;;31.51;21.49;100991.34;5009861;28;20025;-70
2023/06/13 15:45:30;;;;;;;3.60;3.17;;;;;;;31.50;20.75;100995.28;4996216;28;20030;-70
2023/06/13 15:47:56;;;;;;;6.18;3.42;;;;;;;31.54;21.29;100992.56;5002722;28;20049;-69
2023/06/13 15:50:21;;;;;;;7.10;3.20;;;;;;;31.44;20.84;100991.16;5011405;28;20045;-69
2023/06/13 15:52:47;;;;;;;5.40;3.00;;;;;;;31.39;21.43;100977.47;5012889;28;20281;-69
2023/06/13 15:55:12;;;;;;;12.20;3.45;;;;;;;31.97;21.26;100985.13;5008469;28;20042;-69
2023/06/13 15:57:38;;;;;;;7.82;3.47;;;;;;;32.32;20.94;100987.88;5005046;28;20103;-69
2023/06/13 16:00:07;;;;;;;8.32;3.30;;;;;;;32.47;20.48;100988.91;4993305;28;20069;-69
2023/06/13 16:02:33;;;;;;;8.50;3.35;;;;;;;32.32;20.72;100978.63;5001822;28;20444;-69
2023/06/13 16:05:00;;;;;;;8.27;3.22;;;;;;;32.00;20.73;100975.19;4991136;28;20037;-69
2023/06/13 16:07:25;;;;;;;7.47;3.60;;;;;;;31.53;21.13;100974.19;5003141;28;20030;-69
